createdAt,value
2022-12-25T00:01:44.387Z,98844.94
2022-12-25T00:04:20.907Z,98827.03
2022-12-25T00:10:23.209Z,98851.22
2022-12-25T00:13:10.372Z,98806.03
2022-12-25T00:16:19.510Z,98864.41
2022-12-25T00:19:00.924Z,98819.19
2022-12-25T00:21:35.857Z,98879.06
2022-12-25T00:24:04.378Z,98842.13
2022-12-25T00:26:57.232Z,98877.31
2022-12-25T00:29:32.923Z,98855.13
2022-12-25T00:33:39.061Z,98866.06
2022-12-25T00:34:55.623Z,98804.56
2022-12-25T00:37:40.041Z,98864.16
2022-12-25T00:40:48.864Z,98824.72
2022-12-25T00:43:25.954Z,98896.31
2022-12-25T00:46:00.707Z,98886.13
2022-12-25T00:48:50.809Z,98845.78
2022-12-25T00:51:43.929Z,98890.13
2022-12-25T00:54:16.511Z,98824.38
2022-12-25T00:56:47.450Z,98875.50
2022-12-25T00:59:41.813Z,98828.09
2022-12-25T01:02:31.119Z,98820.25
2022-12-25T01:05:26.420Z,98802.91
2022-12-25T01:08:04.165Z,98788.16
2022-12-25T01:10:43.681Z,98793.38
2022-12-25T01:13:16.592Z,98856.72
2022-12-25T01:15:56.847Z,98821.06
2022-12-25T01:18:53.284Z,98818.66
2022-12-25T01:22:28.061Z,98776.16
2022-12-25T01:24:15.692Z,98827.47
2022-12-25T01:27:09.980Z,98842.13
2022-12-25T01:29:48.543Z,98820.59
2022-12-25T01:32:17.984Z,98772.06
2022-12-25T01:35:10.195Z,98821.97
2022-12-25T01:37:54.030Z,98811.19
2022-12-25T01:40:59.043Z,98799.09
2022-12-25T01:43:36.401Z,98835.88
2022-12-25T01:46:18.587Z,98878.44
2022-12-25T01:48:48.284Z,98877.59
2022-12-25T01:51:26.958Z,98859.78
2022-12-25T01:53:57.444Z,98797.13
2022-12-25T01:56:36.949Z,98823.28
2022-12-25T01:59:27.374Z,98784.44
2022-12-25T02:03:56.560Z,98859.19
2022-12-25T02:07:14.203Z,98797.94
2022-12-25T02:08:42.436Z,98843.75
2022-12-25T02:12:20.058Z,98821.91
2022-12-25T02:14:51.259Z,98850.13
2022-12-25T02:18:24.046Z,98813.75
2022-12-25T02:20:44.320Z,98846.13
2022-12-25T02:23:34.702Z,98815.78
2022-12-25T02:26:32.839Z,98786.66
2022-12-25T02:29:21.583Z,98855.75
2022-12-25T02:32:02.467Z,98810.19
2022-12-25T02:34:38.927Z,98800.53
2022-12-25T02:37:15.386Z,98813.34
2022-12-25T02:39:59.001Z,98798.19
2022-12-25T02:42:54.908Z,98843.28
2022-12-25T02:45:47.459Z,98849.50
2022-12-25T02:48:34.489Z,98846.97
2022-12-25T02:51:24.804Z,98838.19
2022-12-25T02:54:13.628Z,98846.75
2022-12-25T02:57:00.672Z,98857.03
2022-12-25T02:59:49.498Z,98857.13
2022-12-25T03:02:37.409Z,98850.69
2022-12-25T03:05:26.748Z,98855.78
2022-12-25T03:07:57.073Z,98852.63
2022-12-25T03:10:43.907Z,98834.47
2022-12-25T03:13:18.070Z,98849.41
2022-12-25T03:16:04.465Z,98839.88
2022-12-25T03:18:38.065Z,98837.31
2022-12-25T03:21:24.176Z,98807.44
2022-12-25T03:24:16.679Z,98822.19
2022-12-25T03:26:58.037Z,98827.59
2022-12-25T03:29:45.564Z,98794.81
2022-12-25T03:32:22.010Z,98804.34
2022-12-25T03:35:17.076Z,98783.41
2022-12-25T03:38:16.861Z,98797.84
2022-12-25T03:41:16.216Z,98804.81
2022-12-25T03:44:11.116Z,98781.41
2022-12-25T03:47:07.568Z,98795.38
2022-12-25T03:50:01.489Z,98798.66
2022-12-25T03:52:50.386Z,98793.78
2022-12-25T03:55:38.080Z,98789.03
2022-12-25T03:58:23.316Z,98787.53
2022-12-25T04:01:08.409Z,98792.72
2022-12-25T04:03:53.621Z,98789.97
2022-12-25T04:06:38.873Z,98795.50
2022-12-25T04:09:27.647Z,98782.69
2022-12-25T04:12:12.790Z,98782.38
2022-12-25T04:14:58.093Z,98764.03
2022-12-25T04:17:43.257Z,98778.44
2022-12-25T04:20:29.631Z,98772.00
2022-12-25T04:23:20.089Z,98764.75
2022-12-25T04:26:11.294Z,98775.97
2022-12-25T04:28:58.213Z,98713.28
2022-12-25T04:31:43.499Z,98720.47
2022-12-25T04:34:28.773Z,98764.44
2022-12-25T04:36:56.684Z,98763.28
2022-12-25T04:39:24.702Z,98743.47
2022-12-25T04:42:13.005Z,98708.81
2022-12-25T04:44:43.159Z,98770.38
2022-12-25T04:47:15.549Z,98769.53
2022-12-25T04:49:44.833Z,98713.06
2022-12-25T04:52:12.880Z,98768.38
2022-12-25T04:54:41.158Z,98767.50
2022-12-25T04:57:10.687Z,98678.31
2022-12-25T04:59:38.886Z,98760.59
2022-12-25T05:02:07.091Z,98684.13
2022-12-25T05:04:36.574Z,98758.03
2022-12-25T05:07:04.592Z,98687.56
2022-12-25T05:09:33.859Z,98678.00
2022-12-25T05:12:01.969Z,98681.66
2022-12-25T05:14:31.711Z,98704.25
2022-12-25T05:17:01.786Z,98727.88
2022-12-25T05:19:30.143Z,98643.38
2022-12-25T05:21:58.387Z,98724.06
2022-12-25T05:24:28.258Z,98717.59
2022-12-25T05:26:58.357Z,98711.78
2022-12-25T05:29:26.669Z,98674.13
2022-12-25T05:31:56.155Z,98667.34
2022-12-25T05:34:35.855Z,98628.72
2022-12-25T05:37:46.739Z,98632.47
2022-12-25T05:40:06.801Z,98707.56
2022-12-25T05:42:35.534Z,98672.31
2022-12-25T05:45:05.456Z,98682.28
2022-12-25T05:47:38.769Z,98653.28
2022-12-25T05:50:10.115Z,98656.25
2022-12-25T05:52:40.420Z,98685.16
2022-12-25T05:55:09.230Z,98652.88
2022-12-25T05:57:39.186Z,98697.53
2022-12-25T06:00:31.060Z,98670.47
2022-12-25T06:02:58.750Z,98630.44
2022-12-25T06:05:28.797Z,98615.59
2022-12-25T06:07:59.062Z,98636.06
2022-12-25T06:10:28.362Z,98634.31
2022-12-25T06:13:06.600Z,98644.97
2022-12-25T06:15:40.582Z,98630.78
2022-12-25T06:18:42.456Z,98616.63
2022-12-25T06:21:29.045Z,98611.19
2022-12-25T06:23:59.250Z,98659.94
2022-12-25T06:26:54.802Z,98664.63
2022-12-25T06:29:22.927Z,98655.19
2022-12-25T06:31:51.102Z,98629.75
2022-12-25T06:34:35.781Z,98699.09
2022-12-25T06:37:16.222Z,98649.59
2022-12-25T06:39:49.974Z,98695.97
2022-12-25T06:42:24.078Z,98671.63
2022-12-25T06:44:54.622Z,98620.53
2022-12-25T06:47:25.051Z,98705.03
2022-12-25T06:49:54.489Z,98656.56
2022-12-25T06:52:22.582Z,98683.44
2022-12-25T06:54:52.174Z,98681.94
2022-12-25T06:57:22.052Z,98652.22
2022-12-25T06:59:55.045Z,98672.22
2022-12-25T07:02:32.350Z,98696.03
2022-12-25T07:05:08.705Z,98719.31
2022-12-25T07:07:38.077Z,98663.81
2022-12-25T07:10:08.210Z,98663.22
2022-12-25T07:12:38.272Z,98693.94
2022-12-25T07:15:07.232Z,98710.16
2022-12-25T07:17:38.481Z,98632.56
2022-12-25T07:20:09.575Z,98691.22
2022-12-25T07:22:37.516Z,98656.81
2022-12-25T07:25:06.065Z,98688.41
2022-12-25T07:27:36.250Z,98692.47
2022-12-25T07:30:05.056Z,98679.50
2022-12-25T07:32:33.130Z,98641.63
2022-12-25T07:35:01.065Z,98694.91
2022-12-25T07:37:30.413Z,98700.41
2022-12-25T07:39:58.367Z,98688.19
2022-12-25T07:42:26.340Z,98693.88
2022-12-25T07:44:54.340Z,98650.97
2022-12-25T07:47:22.325Z,98712.13
2022-12-25T07:49:50.511Z,98721.00
2022-12-25T07:52:18.495Z,98695.94
2022-12-25T07:54:47.958Z,98731.88
2022-12-25T07:57:15.998Z,98705.25
2022-12-25T07:59:43.981Z,98725.34
2022-12-25T08:02:12.525Z,98723.84
2022-12-25T08:04:40.671Z,98742.22
2022-12-25T08:07:08.624Z,98745.34
2022-12-25T08:09:37.159Z,98747.81
2022-12-25T08:12:07.038Z,98716.31
2022-12-25T08:14:35.009Z,98745.75
2022-12-25T08:17:03.056Z,98716.03
2022-12-25T08:19:31.155Z,98654.75
2022-12-25T08:21:59.243Z,98717.22
2022-12-25T08:24:31.579Z,98703.81
2022-12-25T08:26:59.599Z,98657.41
2022-12-25T08:29:29.697Z,98686.19
2022-12-25T08:31:57.731Z,98671.56
2022-12-25T08:34:25.767Z,98691.38
2022-12-25T08:36:53.803Z,98658.38
2022-12-25T08:39:21.823Z,98628.28
2022-12-25T08:41:49.839Z,98708.09
2022-12-25T08:44:17.856Z,98712.94
2022-12-25T08:46:47.224Z,98640.28
2022-12-25T08:49:16.455Z,98636.97
2022-12-25T08:51:48.046Z,98656.16
2022-12-25T08:54:16.097Z,98684.16
2022-12-25T08:56:44.152Z,98692.53
2022-12-25T08:59:12.161Z,98657.94
2022-12-25T09:01:41.065Z,98660.28
2022-12-25T09:04:11.618Z,98648.41
2022-12-25T09:06:39.638Z,98645.69
2022-12-25T09:09:07.634Z,98658.84
2022-12-25T09:11:36.938Z,98688.16
2022-12-25T09:14:05.064Z,98683.53
2022-12-25T09:16:33.186Z,98615.25
2022-12-25T09:19:01.322Z,98621.69
2022-12-25T09:21:30.927Z,98658.63
2022-12-25T09:23:58.982Z,98661.19
2022-12-25T09:26:42.433Z,98677.06
2022-12-25T09:29:15.149Z,98638.22
2022-12-25T09:31:49.471Z,98666.50
2022-12-25T09:34:20.009Z,98693.50
2022-12-25T09:36:51.313Z,98729.19
2022-12-25T09:39:20.239Z,98692.53
2022-12-25T09:42:00.233Z,98717.41
2022-12-25T09:44:32.048Z,98666.28
2022-12-25T09:47:05.992Z,98647.63
2022-12-25T09:49:38.564Z,98707.22
2022-12-25T09:52:13.870Z,98672.66
2022-12-25T09:54:51.470Z,98698.41
2022-12-25T09:57:19.645Z,98690.13
2022-12-25T09:59:47.967Z,98683.13
2022-12-25T10:02:42.905Z,98631.44
2022-12-25T10:05:34.926Z,98646.66
2022-12-25T10:08:12.821Z,98659.16
2022-12-25T10:10:51.400Z,98635.72
2022-12-25T10:13:44.160Z,98683.94
2022-12-25T10:16:22.302Z,98630.13
2022-12-25T10:19:03.639Z,98631.50
2022-12-25T10:21:32.677Z,98649.50
2022-12-25T10:24:08.637Z,98610.31
2022-12-25T10:26:36.743Z,98645.47
2022-12-25T10:29:12.753Z,98704.84
2022-12-25T10:31:41.913Z,98681.03
2022-12-25T10:34:15.763Z,98662.72
2022-12-25T10:36:45.112Z,98698.78
2022-12-25T10:39:17.532Z,98636.97
2022-12-25T10:42:03.595Z,98684.47
2022-12-25T10:44:33.408Z,98695.22
2022-12-25T10:47:03.030Z,98687.34
2022-12-25T10:49:34.159Z,98692.22
2022-12-25T10:52:02.731Z,98699.75
2022-12-25T10:54:35.183Z,98669.06
2022-12-25T10:57:04.808Z,98688.66
2022-12-25T10:59:54.766Z,98692.78
2022-12-25T11:02:43.058Z,98650.97
2022-12-25T11:05:16.055Z,98663.44
2022-12-25T11:07:51.451Z,98620.28
2022-12-25T11:10:24.114Z,98624.06
2022-12-25T11:12:52.863Z,98642.56
2022-12-25T11:15:40.320Z,98635.56
2022-12-25T11:18:21.573Z,98645.81
2022-12-25T11:20:51.133Z,98615.97
2022-12-25T11:23:20.866Z,98633.38
2022-12-25T11:25:57.986Z,98605.00
2022-12-25T11:28:26.650Z,98581.59
2022-12-25T11:31:10.202Z,98581.97
2022-12-25T11:33:43.106Z,98571.91
2022-12-25T11:36:19.904Z,98543.94
2022-12-25T11:38:48.140Z,98582.13
2022-12-25T11:41:20.864Z,98582.16
2022-12-25T11:43:54.868Z,98543.41
2022-12-25T11:46:28.346Z,98572.34
2022-12-25T11:49:00.377Z,98601.00
2022-12-25T11:51:33.447Z,98612.31
2022-12-25T11:54:09.155Z,98594.44
2022-12-25T11:56:39.324Z,98535.91
2022-12-25T11:59:18.227Z,98588.88
2022-12-25T12:01:50.421Z,98556.19
2022-12-25T12:04:30.015Z,98521.81
2022-12-25T12:07:02.770Z,98564.00
2022-12-25T12:09:41.013Z,98505.75
2022-12-25T12:12:15.392Z,98537.94
2022-12-25T12:15:01.768Z,98561.34
2022-12-25T12:17:29.879Z,98555.44
2022-12-25T12:19:59.019Z,98559.34
2022-12-25T12:22:29.502Z,98547.09
2022-12-25T12:25:01.575Z,98523.66
2022-12-25T12:27:36.089Z,98554.03
2022-12-25T12:30:05.736Z,98542.91
2022-12-25T12:32:42.033Z,98563.13
2022-12-25T12:35:16.757Z,98559.47
2022-12-25T12:37:47.462Z,98494.41
2022-12-25T12:40:40.579Z,98559.88
2022-12-25T12:43:29.667Z,98553.69
2022-12-25T12:46:03.235Z,98560.59
2022-12-25T12:48:38.478Z,98564.75
2022-12-25T12:51:09.162Z,98572.19
2022-12-25T12:53:39.345Z,98545.03
2022-12-25T12:56:15.944Z,98553.28
2022-12-25T12:58:50.045Z,98554.50
2022-12-25T13:01:40.115Z,98530.28
2022-12-25T13:04:28.795Z,98524.78
2022-12-25T13:07:14.350Z,98552.25
2022-12-25T13:09:58.241Z,98561.56
2022-12-25T13:12:30.115Z,98559.25
2022-12-25T13:14:59.910Z,98471.09
2022-12-25T13:17:28.907Z,98528.75
2022-12-25T13:19:59.476Z,98549.56
2022-12-25T13:22:33.122Z,98546.72
2022-12-25T13:25:03.165Z,98524.34
2022-12-25T13:27:33.109Z,98525.31
2022-12-25T13:30:14.520Z,98561.63
2022-12-25T13:32:45.984Z,98570.63
2022-12-25T13:35:15.368Z,98578.50
2022-12-25T13:37:44.370Z,98576.78
2022-12-25T13:40:22.676Z,98573.38
2022-12-25T13:42:52.981Z,98574.09
2022-12-25T13:45:25.738Z,98582.28
2022-12-25T13:47:55.740Z,98582.84
2022-12-25T13:50:27.526Z,98537.91
2022-12-25T13:52:58.215Z,98575.41
2022-12-25T13:55:29.049Z,98585.94
2022-12-25T13:57:59.491Z,98547.72
2022-12-25T14:00:34.951Z,98579.03
2022-12-25T14:03:05.944Z,98584.06
2022-12-25T14:05:42.758Z,98537.31
2022-12-25T14:08:17.398Z,98540.09
2022-12-25T14:10:47.993Z,98590.63
2022-12-25T14:13:18.269Z,98556.38
2022-12-25T14:15:49.934Z,98572.19
2022-12-25T14:18:20.755Z,98552.75
2022-12-25T14:21:00.786Z,98588.00
2022-12-25T14:23:38.965Z,98594.97
2022-12-25T14:26:07.991Z,98559.34
2022-12-25T14:28:38.073Z,98605.94
2022-12-25T14:31:07.895Z,98610.75
2022-12-25T14:33:39.730Z,98577.91
2022-12-25T14:36:08.557Z,98606.56
2022-12-25T14:38:36.538Z,98621.97
2022-12-25T14:41:07.642Z,98608.00
2022-12-25T14:43:36.511Z,98629.50
2022-12-25T14:46:07.509Z,98632.00
2022-12-25T14:48:35.604Z,98652.78
2022-12-25T14:51:05.829Z,98652.97
2022-12-25T14:53:37.657Z,98662.94
2022-12-25T14:56:08.008Z,98647.16
2022-12-25T14:58:42.000Z,98644.88
2022-12-25T15:01:22.334Z,98629.84
2022-12-25T15:03:50.752Z,98644.22
2022-12-25T15:06:21.137Z,98617.81
2022-12-25T15:08:58.159Z,98618.69
2022-12-25T15:11:26.138Z,98672.66
2022-12-25T15:13:54.065Z,98656.66
2022-12-25T15:16:26.034Z,98610.69
2022-12-25T15:18:54.879Z,98685.72
2022-12-25T15:21:26.922Z,98673.66
2022-12-25T15:23:56.025Z,98689.81
2022-12-25T15:26:25.275Z,98632.47
2022-12-25T15:28:54.218Z,98653.16
2022-12-25T15:31:26.271Z,98636.94
2022-12-25T15:33:55.262Z,98672.50
2022-12-25T15:36:34.105Z,98711.88
2022-12-25T15:39:14.320Z,98720.06
2022-12-25T15:41:59.993Z,98726.50
2022-12-25T15:44:40.794Z,98691.38
2022-12-25T15:47:10.432Z,98704.97
2022-12-25T15:49:38.955Z,98688.66
2022-12-25T15:52:09.450Z,98721.88
2022-12-25T15:54:37.494Z,98657.31
2022-12-25T15:57:08.319Z,98689.78
2022-12-25T15:59:36.443Z,98699.50
2022-12-25T16:02:04.576Z,98674.72
2022-12-25T16:04:34.036Z,98684.69
2022-12-25T16:07:02.164Z,98669.88
2022-12-25T16:09:30.233Z,98658.81
2022-12-25T16:11:58.262Z,98711.50
2022-12-25T16:14:26.296Z,98703.88
2022-12-25T16:16:54.285Z,98703.09
2022-12-25T16:19:22.284Z,98696.91
2022-12-25T16:21:51.759Z,98732.84
2022-12-25T16:24:21.754Z,98709.78
2022-12-25T16:26:49.842Z,98685.78
2022-12-25T16:29:17.892Z,98717.69
2022-12-25T16:31:46.002Z,98680.22
2022-12-25T16:34:14.221Z,98735.19
2022-12-25T16:36:42.303Z,98700.50
2022-12-25T16:39:11.852Z,98729.31
2022-12-25T16:41:39.887Z,98725.72
2022-12-25T16:44:10.297Z,98684.06
2022-12-25T16:46:39.070Z,98690.88
2022-12-25T16:49:07.392Z,98693.06
2022-12-25T16:51:35.624Z,98706.63
2022-12-25T16:54:03.896Z,98780.78
2022-12-25T16:56:33.439Z,98702.69
2022-12-25T16:59:01.701Z,98776.78
2022-12-25T17:01:30.124Z,98739.97
2022-12-25T17:04:01.637Z,98739.41
2022-12-25T17:06:30.213Z,98748.72
2022-12-25T17:09:00.205Z,98762.53
2022-12-25T17:11:30.183Z,98728.44
2022-12-25T17:14:02.258Z,98738.38
2022-12-25T17:16:33.753Z,98758.47
2022-12-25T17:19:04.365Z,98754.38
2022-12-25T17:21:34.377Z,98755.06
2022-12-25T17:24:04.102Z,98753.19
2022-12-25T17:26:54.754Z,98758.91
2022-12-25T17:56:24.749Z,98771.56
2022-12-25T18:03:16.784Z,98780.44
2022-12-25T18:05:45.235Z,98769.47
2022-12-25T18:08:13.384Z,98770.63
2022-12-25T18:10:43.675Z,98695.28
2022-12-25T18:13:13.475Z,98730.38
2022-12-25T18:15:44.238Z,98702.31
2022-12-25T18:18:13.022Z,98729.09
2022-12-25T18:20:43.062Z,98773.59
2022-12-25T18:23:11.291Z,98780.31
2022-12-25T18:25:42.810Z,98761.41
2022-12-25T18:28:12.714Z,98692.94
2022-12-25T18:30:41.299Z,98756.03
2022-12-25T18:33:09.748Z,98708.66
2022-12-25T18:35:40.496Z,98682.28
2022-12-25T18:38:09.334Z,98714.94
2022-12-25T18:40:42.270Z,98780.00
2022-12-25T18:43:10.587Z,98764.75
2022-12-25T18:45:40.188Z,98710.56
2022-12-25T18:48:09.628Z,98708.88
2022-12-25T18:50:40.096Z,98718.22
2022-12-25T18:53:08.650Z,98771.47
2022-12-25T18:55:36.855Z,98696.81
2022-12-25T18:58:05.181Z,98718.72
2022-12-25T19:00:33.426Z,98756.44
2022-12-25T19:03:03.877Z,98710.50
2022-12-25T19:05:32.020Z,98715.94
2022-12-25T19:08:00.139Z,98765.06
2022-12-25T19:10:28.346Z,98702.13
2022-12-25T19:12:56.592Z,98724.97
2022-12-25T19:15:24.776Z,98718.97
2022-12-25T19:17:52.891Z,98755.22
2022-12-25T19:20:22.441Z,98705.25
2022-12-25T19:22:50.570Z,98721.84
2022-12-25T19:25:19.784Z,98733.06
2022-12-25T19:27:47.783Z,98695.28
2022-12-25T19:30:15.853Z,98731.63
2022-12-25T19:32:43.885Z,98703.66
2022-12-25T19:35:11.992Z,98756.06
2022-12-25T19:37:41.499Z,98703.78
2022-12-25T19:40:10.477Z,98723.97
2022-12-25T19:42:39.102Z,98739.09
2022-12-25T19:45:08.599Z,98723.38
2022-12-25T19:47:36.718Z,98730.38
2022-12-25T19:50:05.113Z,98709.22
2022-12-25T19:52:33.308Z,98735.47
2022-12-25T19:55:02.953Z,98770.31
2022-12-25T19:57:32.006Z,98719.88
2022-12-25T20:00:01.548Z,98704.91
2022-12-25T20:02:33.727Z,98728.53
2022-12-25T20:05:06.492Z,98715.31
2022-12-25T20:07:36.460Z,98714.28
2022-12-25T20:10:07.580Z,98696.44
2022-12-25T20:12:36.690Z,98754.91
2022-12-25T20:15:05.441Z,98766.88
2022-12-25T20:17:34.495Z,98728.44
2022-12-25T20:20:09.231Z,98698.47
2022-12-25T20:22:37.319Z,98712.00
2022-12-25T20:46:04.992Z,98708.84
2022-12-25T21:06:36.134Z,98805.22
2022-12-25T21:09:05.256Z,98737.72
2022-12-25T21:11:36.510Z,98800.44
2022-12-25T21:14:08.716Z,98816.28
2022-12-25T21:16:59.968Z,98811.41
2022-12-25T21:19:38.184Z,98772.16
2022-12-25T21:22:08.600Z,98758.75
2022-12-25T21:24:36.771Z,98793.22
2022-12-25T21:27:05.647Z,98754.94
2022-12-25T21:29:36.742Z,98762.41
2022-12-25T21:32:23.627Z,98746.88
2022-12-25T21:34:54.424Z,98829.50
2022-12-25T21:37:24.420Z,98826.47
2022-12-25T21:39:55.155Z,98828.78
2022-12-25T21:42:23.167Z,98801.75
2022-12-25T21:44:53.175Z,98795.59
2022-12-25T21:47:22.411Z,98803.22
2022-12-25T21:50:08.291Z,98747.31
2022-12-25T21:52:38.238Z,98786.47
2022-12-25T21:55:09.440Z,98810.81
2022-12-25T21:57:38.033Z,98779.41
2022-12-25T22:00:07.630Z,98776.34
2022-12-25T22:02:37.333Z,98805.50
2022-12-25T22:05:06.562Z,98806.34
2022-12-25T22:07:34.159Z,98858.50
2022-12-25T22:10:04.138Z,98807.16
2022-12-25T22:12:49.577Z,98861.66
2022-12-25T22:15:18.630Z,98866.88
2022-12-25T22:18:04.180Z,98796.56
2022-12-25T22:20:36.260Z,98845.22
2022-12-25T22:23:04.740Z,98868.81
2022-12-25T22:25:39.791Z,98866.41
2022-12-25T22:28:08.743Z,98861.59
2022-12-25T22:30:37.241Z,98819.53
2022-12-25T22:33:07.112Z,98881.09
2022-12-25T22:35:37.888Z,98859.00
2022-12-25T22:38:12.161Z,98857.78
2022-12-25T22:40:43.155Z,98865.97
2022-12-25T22:43:12.227Z,98875.25
2022-12-25T22:45:40.591Z,98809.34
2022-12-25T22:48:08.537Z,98875.78
2022-12-25T22:50:38.368Z,98822.09
2022-12-25T22:53:07.553Z,98852.38
2022-12-25T22:55:35.632Z,98900.03
2022-12-25T22:58:05.032Z,98846.06
2022-12-25T23:00:34.924Z,98897.75
2022-12-25T23:03:05.475Z,98895.34
2022-12-25T23:05:33.643Z,98903.47
2022-12-25T23:08:01.645Z,98906.28
2022-12-25T23:10:30.004Z,98869.19
2022-12-25T23:13:15.294Z,98908.81
2022-12-25T23:15:45.929Z,98887.09
2022-12-25T23:18:31.167Z,98889.88
2022-12-25T23:21:18.514Z,98896.91
2022-12-25T23:24:04.280Z,98864.25
2022-12-25T23:26:32.265Z,98917.59
2022-12-25T23:29:17.479Z,98915.41
2022-12-25T23:31:53.631Z,98916.88
2022-12-25T23:34:22.484Z,98915.06
2022-12-25T23:36:50.525Z,98934.09
2022-12-25T23:39:18.497Z,98890.53
2022-12-25T23:41:46.581Z,98872.25
2022-12-25T23:44:15.002Z,98930.06
2022-12-25T23:46:52.275Z,98860.56
2022-12-25T23:49:23.410Z,98883.72
2022-12-25T23:51:53.402Z,98921.81
2022-12-25T23:54:25.139Z,98935.69
2022-12-25T23:56:53.845Z,98879.09
2022-12-25T23:59:21.888Z,98911.44
